createdAt,value
2018-07-12T00:01:25.717Z,99.90
2018-07-12T00:03:53.141Z,99.90
2018-07-12T00:06:20.579Z,99.90
2018-07-12T00:08:48.061Z,99.90
2018-07-12T00:11:15.489Z,99.90
2018-07-12T00:13:43.027Z,99.90
2018-07-12T00:16:10.477Z,99.90
2018-07-12T00:18:37.903Z,99.90
2018-07-12T00:21:05.405Z,99.90
2018-07-12T00:23:32.890Z,99.90
2018-07-12T00:26:00.355Z,99.90
2018-07-12T00:28:27.812Z,99.90
2018-07-12T00:30:55.255Z,99.90
2018-07-12T00:33:22.683Z,99.90
2018-07-12T00:35:50.146Z,99.90
2018-07-12T00:38:17.620Z,99.90
2018-07-12T00:40:45.059Z,99.90
2018-07-12T00:43:12.530Z,99.90
2018-07-12T00:45:40.070Z,99.90
2018-07-12T00:48:07.512Z,99.90
2018-07-12T00:50:34.998Z,99.90
2018-07-12T00:53:02.442Z,99.90
2018-07-12T00:55:29.938Z,99.90
2018-07-12T00:57:57.318Z,99.90
2018-07-12T01:00:24.744Z,99.90
2018-07-12T01:02:52.134Z,99.90
2018-07-12T01:05:19.570Z,99.90
2018-07-12T01:07:47.056Z,99.90
2018-07-12T01:10:14.490Z,99.90
2018-07-12T01:12:41.951Z,99.90
2018-07-12T01:15:09.379Z,99.90
2018-07-12T01:17:36.817Z,99.90
2018-07-12T01:20:04.236Z,99.90
2018-07-12T01:22:31.675Z,99.90
2018-07-12T01:24:59.146Z,99.90
2018-07-12T01:27:26.612Z,99.90
2018-07-12T01:32:21.748Z,99.90
2018-07-12T01:34:49.178Z,99.90
2018-07-12T01:37:16.622Z,99.90
2018-07-12T01:39:44.048Z,99.90
2018-07-12T01:42:11.486Z,99.90
2018-07-12T01:44:38.924Z,99.90
2018-07-12T01:47:06.374Z,99.90
2018-07-12T01:49:33.802Z,99.90
2018-07-12T01:52:01.241Z,99.90
2018-07-12T01:54:28.718Z,99.90
2018-07-12T01:56:56.174Z,99.90
2018-07-12T01:59:23.580Z,99.90
2018-07-12T02:01:51.083Z,99.90
2018-07-12T02:04:18.514Z,99.90
2018-07-12T02:06:45.944Z,99.90
2018-07-12T02:09:13.405Z,99.90
2018-07-12T02:11:40.829Z,99.90
2018-07-12T02:14:08.263Z,99.90
2018-07-12T02:16:35.698Z,99.90
2018-07-12T02:19:03.137Z,99.90
2018-07-12T02:21:30.569Z,99.90
2018-07-12T02:23:58.022Z,99.90
2018-07-12T02:26:25.492Z,99.90
2018-07-12T02:31:20.634Z,99.90
2018-07-12T02:33:48.053Z,99.90
2018-07-12T02:36:15.446Z,99.90
2018-07-12T02:38:42.877Z,99.90
2018-07-12T02:41:10.304Z,99.90
2018-07-12T02:43:37.738Z,99.90
2018-07-12T02:46:05.264Z,99.90
2018-07-12T02:48:32.707Z,99.90
2018-07-12T02:51:00.162Z,99.90
2018-07-12T02:53:27.642Z,99.90
2018-07-12T02:55:55.077Z,99.90
2018-07-12T02:58:22.524Z,99.90
2018-07-12T03:00:49.967Z,99.90
2018-07-12T03:03:17.414Z,99.90
2018-07-12T03:05:44.848Z,99.90
2018-07-12T03:08:12.256Z,99.90
2018-07-12T03:10:39.722Z,99.90
2018-07-12T03:13:07.226Z,99.90
2018-07-12T03:15:34.644Z,99.90
2018-07-12T03:18:02.088Z,99.90
2018-07-12T03:20:29.533Z,99.90
2018-07-12T03:22:56.997Z,99.90
2018-07-12T03:25:24.453Z,99.90
2018-07-12T03:27:51.882Z,99.90
2018-07-12T03:30:19.345Z,99.90
2018-07-12T03:32:46.777Z,99.90
2018-07-12T03:35:14.224Z,99.90
2018-07-12T03:37:41.696Z,99.90
2018-07-12T03:40:09.149Z,99.90
2018-07-12T03:42:36.616Z,99.90
2018-07-12T03:45:04.078Z,99.90
2018-07-12T03:47:31.510Z,99.90
2018-07-12T03:49:58.922Z,99.90
2018-07-12T03:52:26.412Z,99.90
2018-07-12T03:54:54.023Z,99.90
2018-07-12T03:57:21.460Z,99.90
2018-07-12T03:59:48.874Z,99.90
2018-07-12T04:02:16.336Z,99.90
2018-07-12T04:04:43.777Z,99.90
2018-07-12T04:07:11.211Z,99.90
2018-07-12T04:09:38.685Z,99.90
2018-07-12T04:14:33.801Z,99.90
2018-07-12T04:17:01.226Z,99.90
2018-07-12T04:19:28.676Z,99.90
2018-07-12T04:21:56.178Z,99.90
2018-07-12T04:24:23.599Z,99.90
2018-07-12T04:26:51.021Z,99.90
2018-07-12T04:29:18.467Z,99.90
2018-07-12T04:31:45.873Z,99.90
2018-07-12T04:34:13.293Z,99.90
2018-07-12T04:36:40.749Z,99.90
2018-07-12T04:39:08.159Z,99.90
2018-07-12T04:41:35.587Z,99.90
2018-07-12T04:44:03.076Z,99.90
2018-07-12T04:46:30.490Z,99.90
2018-07-12T04:48:57.921Z,99.90
2018-07-12T04:51:25.327Z,99.90
2018-07-12T04:53:52.747Z,99.90
2018-07-12T04:56:20.231Z,99.90
2018-07-12T04:58:47.637Z,99.90
2018-07-12T05:01:15.083Z,99.90
2018-07-12T05:03:42.524Z,99.90
2018-07-12T05:06:09.931Z,99.90
2018-07-12T05:08:37.342Z,99.90
2018-07-12T05:11:04.808Z,99.90
2018-07-12T05:13:32.285Z,99.90
2018-07-12T05:15:59.806Z,99.90
2018-07-12T05:18:27.277Z,99.90
2018-07-12T05:20:54.742Z,99.90
2018-07-12T05:23:22.206Z,99.90
2018-07-12T05:25:49.640Z,99.90
2018-07-12T05:28:17.118Z,99.90
2018-07-12T05:30:44.603Z,99.90
2018-07-12T05:33:12.016Z,99.90
2018-07-12T05:38:08.985Z,99.90
2018-07-12T05:40:37.655Z,99.90
2018-07-12T05:43:06.464Z,99.90
2018-07-12T05:45:35.157Z,99.90
2018-07-12T05:48:03.863Z,99.90
2018-07-12T05:50:32.551Z,99.90
2018-07-12T05:53:01.175Z,99.90
2018-07-12T05:55:29.879Z,99.90
2018-07-12T05:57:58.494Z,99.90
2018-07-12T06:00:27.143Z,99.90
2018-07-12T06:02:55.817Z,99.90
2018-07-12T06:05:24.556Z,99.90
2018-07-12T06:07:53.614Z,99.90
2018-07-12T06:10:22.303Z,99.90
2018-07-12T06:12:50.968Z,99.90
2018-07-12T06:15:19.583Z,99.90
2018-07-12T06:17:48.264Z,99.90
2018-07-12T06:20:16.941Z,99.90
2018-07-12T06:22:45.697Z,99.90
2018-07-12T06:25:14.423Z,99.90
2018-07-12T06:27:43.093Z,99.90
2018-07-12T06:30:11.820Z,99.90
2018-07-12T06:32:40.481Z,99.90
2018-07-12T06:35:09.225Z,99.90
2018-07-12T06:37:37.884Z,99.90
2018-07-12T06:40:06.585Z,99.90
2018-07-12T06:42:35.293Z,99.90
2018-07-12T06:45:04.036Z,99.90
2018-07-12T06:47:32.661Z,99.90
2018-07-12T06:50:01.373Z,99.90
2018-07-12T06:52:29.978Z,99.90
2018-07-12T06:54:58.629Z,99.90
2018-07-12T06:57:27.272Z,99.90
2018-07-12T06:59:55.958Z,99.90
2018-07-12T07:02:24.605Z,99.90
2018-07-12T07:04:53.225Z,99.90
2018-07-12T07:07:21.841Z,99.90
2018-07-12T07:09:50.462Z,99.90
2018-07-12T07:12:19.093Z,99.90
2018-07-12T07:14:47.802Z,99.90
2018-07-12T07:17:16.415Z,99.90
2018-07-12T07:19:45.098Z,99.90
2018-07-12T07:22:13.756Z,99.90
2018-07-12T07:24:42.394Z,99.90
2018-07-12T07:27:11.098Z,99.90
2018-07-12T07:29:39.726Z,99.90
2018-07-12T07:32:08.394Z,99.90
2018-07-12T07:34:37.008Z,99.90
2018-07-12T07:39:34.013Z,99.90
2018-07-12T07:42:02.689Z,99.90
2018-07-12T07:44:31.350Z,99.90
2018-07-12T07:47:00.021Z,99.90
2018-07-12T07:49:28.650Z,99.90
2018-07-12T07:51:57.315Z,99.90
2018-07-12T07:54:25.983Z,99.90
2018-07-12T07:56:54.624Z,99.90
2018-07-12T07:59:23.329Z,99.90
2018-07-12T08:01:52.034Z,99.90
2018-07-12T08:04:20.664Z,99.90
2018-07-12T08:06:49.323Z,99.90
2018-07-12T08:09:17.958Z,99.90
2018-07-12T08:11:46.646Z,99.90
2018-07-12T08:16:43.619Z,99.90
2018-07-12T08:21:40.609Z,99.90
2018-07-12T08:24:09.216Z,99.90
2018-07-12T08:26:37.863Z,99.90
2018-07-12T08:29:06.563Z,99.90
2018-07-12T08:34:03.558Z,99.90
2018-07-12T08:36:32.192Z,99.90
2018-07-12T08:39:00.909Z,99.90
2018-07-12T08:41:30.472Z,99.90
2018-07-12T08:43:59.109Z,99.90
2018-07-12T08:46:27.769Z,99.90
2018-07-12T08:48:56.479Z,99.90
2018-07-12T08:51:25.251Z,99.90
2018-07-12T08:53:53.925Z,99.90
2018-07-12T08:56:22.656Z,99.90
2018-07-12T08:58:51.373Z,99.90
2018-07-12T09:01:19.965Z,99.90
2018-07-12T09:03:48.716Z,99.90
2018-07-12T09:06:17.384Z,99.90
2018-07-12T09:08:46.040Z,99.70
2018-07-12T09:11:14.754Z,99.00
2018-07-12T09:13:43.382Z,99.40
2018-07-12T09:16:12.012Z,98.50
2018-07-12T09:18:40.644Z,98.10
2018-07-12T09:21:09.278Z,98.00
2018-07-12T09:23:37.870Z,97.90
2018-07-12T09:26:06.487Z,98.40
2018-07-12T09:28:35.151Z,97.60
2018-07-12T09:31:03.819Z,97.90
2018-07-12T09:33:32.495Z,98.50
2018-07-12T09:36:01.104Z,98.60
2018-07-12T09:38:46.241Z,98.70
2018-07-12T09:41:14.959Z,97.30
2018-07-12T09:43:44.764Z,97.30
2018-07-12T09:46:13.494Z,96.70
2018-07-12T09:48:43.346Z,96.90
2018-07-12T09:51:12.895Z,96.80
2018-07-12T09:53:42.617Z,96.50
2018-07-12T09:56:11.306Z,96.40
2018-07-12T09:58:39.979Z,96.30
2018-07-12T10:01:13.897Z,96.70
2018-07-12T10:03:46.139Z,96.50
2018-07-12T10:06:20.185Z,96.40
2018-07-12T10:09:51.769Z,96.80
2018-07-12T10:12:26.337Z,96.50
2018-07-12T10:15:00.219Z,96.20
2018-07-12T10:17:34.197Z,95.80
2018-07-12T10:20:03.646Z,95.70
2018-07-12T10:22:32.281Z,95.90
2018-07-12T10:25:00.928Z,95.80
2018-07-12T10:27:29.592Z,95.20
2018-07-12T10:29:58.365Z,94.70
2018-07-12T10:32:27.049Z,94.70
2018-07-12T10:34:55.684Z,95.30
2018-07-12T10:37:24.368Z,95.10
2018-07-12T10:39:52.992Z,94.90
2018-07-12T10:42:21.654Z,94.30
2018-07-12T10:44:50.348Z,94.40
2018-07-12T10:47:18.968Z,93.80
2018-07-12T10:49:47.613Z,94.30
2018-07-12T10:52:16.249Z,94.30
2018-07-12T10:54:44.950Z,94.30
2018-07-12T10:57:13.543Z,94.20
2018-07-12T10:59:42.181Z,94.20
2018-07-12T11:02:10.941Z,93.30
2018-07-12T11:04:39.621Z,93.30
2018-07-12T11:07:08.161Z,93.90
2018-07-12T11:09:36.792Z,93.60
2018-07-12T11:12:05.423Z,92.70
2018-07-12T11:14:34.066Z,92.90
2018-07-12T11:17:02.709Z,92.70
2018-07-12T11:19:31.356Z,93.20
2018-07-12T11:21:59.986Z,91.90
2018-07-12T11:24:28.639Z,92.40
2018-07-12T11:26:57.286Z,92.40
2018-07-12T11:29:37.260Z,92.20
2018-07-12T11:32:05.975Z,92.20
2018-07-12T11:34:34.604Z,91.40
2018-07-12T11:37:03.295Z,91.70
2018-07-12T11:39:31.895Z,90.70
2018-07-12T11:42:00.539Z,90.80
2018-07-12T11:44:30.645Z,90.70
2018-07-12T11:49:27.533Z,91.20
2018-07-12T11:51:56.251Z,91.00
2018-07-12T11:54:24.895Z,91.00
2018-07-12T11:56:53.852Z,91.10
2018-07-12T11:59:22.465Z,90.40
2018-07-12T12:01:51.159Z,90.20
2018-07-12T12:04:19.815Z,89.40
2018-07-12T12:06:48.644Z,90.40
2018-07-12T12:09:17.240Z,90.10
2018-07-12T12:11:45.924Z,90.50
2018-07-12T12:14:14.556Z,89.60
2018-07-12T12:16:43.268Z,90.00
2018-07-12T12:19:12.053Z,91.00
2018-07-12T12:21:40.657Z,90.50
2018-07-12T12:24:09.336Z,90.20
2018-07-12T12:26:37.985Z,89.60
2018-07-12T12:31:35.048Z,90.20
2018-07-12T12:34:04.021Z,89.30
2018-07-12T12:36:32.677Z,89.60
2018-07-12T12:39:01.385Z,87.80
2018-07-12T12:41:30.286Z,86.70
2018-07-12T12:43:58.981Z,86.80
2018-07-12T12:46:27.656Z,85.20
2018-07-12T12:48:56.326Z,86.70
2018-07-12T12:51:25.147Z,86.70
2018-07-12T12:53:53.814Z,84.70
2018-07-12T12:56:22.437Z,84.30
2018-07-12T12:58:51.322Z,83.60
2018-07-12T13:01:20.031Z,83.60
2018-07-12T13:03:48.759Z,83.50
2018-07-12T13:06:17.462Z,84.40
2018-07-12T13:08:46.157Z,84.70
2018-07-12T13:11:14.822Z,83.90
2018-07-12T13:13:43.519Z,85.40
2018-07-12T13:16:12.907Z,85.90
2018-07-12T13:18:41.654Z,86.60
2018-07-12T13:21:10.413Z,84.10
2018-07-12T13:23:39.085Z,84.00
2018-07-12T13:26:07.847Z,82.40
2018-07-12T13:28:36.544Z,82.80
2018-07-12T13:31:05.246Z,82.40
2018-07-12T13:36:02.232Z,81.50
2018-07-12T13:38:30.842Z,83.00
2018-07-12T13:40:59.872Z,82.30
2018-07-12T13:43:28.622Z,80.80
2018-07-12T13:45:57.233Z,82.40
2018-07-12T13:48:25.985Z,82.60
2018-07-12T13:50:54.643Z,81.40
2018-07-12T13:53:23.295Z,81.90
2018-07-12T13:55:51.867Z,82.60
2018-07-12T13:58:20.489Z,81.80
2018-07-12T14:00:49.135Z,82.40
2018-07-12T14:03:17.793Z,81.20
2018-07-12T14:05:46.450Z,80.00
2018-07-12T14:08:15.182Z,80.80
2018-07-12T14:10:43.836Z,81.50
2018-07-12T14:13:12.465Z,81.60
2018-07-12T14:18:09.306Z,82.50
2018-07-12T14:20:37.920Z,79.80
2018-07-12T14:23:06.558Z,80.20
2018-07-12T14:25:35.194Z,80.40
2018-07-12T14:33:00.400Z,80.90
2018-07-12T14:35:29.076Z,79.20
2018-07-12T14:37:57.703Z,79.50
2018-07-12T14:40:26.371Z,79.90
2018-07-12T14:42:54.967Z,79.60
2018-07-12T14:45:23.562Z,79.50
2018-07-12T14:47:52.206Z,79.50
2018-07-12T14:50:20.967Z,79.70
2018-07-12T14:52:49.632Z,80.00
2018-07-12T14:55:18.275Z,77.90
2018-07-12T14:57:46.980Z,78.20
2018-07-12T15:00:15.646Z,77.90
2018-07-12T15:02:44.383Z,77.70
2018-07-12T15:05:13.066Z,78.20
2018-07-12T15:07:41.724Z,78.50
2018-07-12T15:10:10.443Z,78.00
2018-07-12T15:12:39.126Z,77.90
2018-07-12T15:15:07.880Z,77.80
2018-07-12T15:17:36.497Z,78.20
2018-07-12T15:20:05.165Z,77.80
2018-07-12T15:22:33.838Z,78.90
2018-07-12T15:27:30.785Z,79.10
2018-07-12T15:29:59.442Z,79.20
2018-07-12T15:32:28.095Z,79.10
2018-07-12T15:34:57.084Z,78.60
2018-07-12T15:37:25.721Z,78.20
2018-07-12T15:39:54.372Z,78.20
2018-07-12T15:42:22.987Z,78.90
2018-07-12T15:44:51.802Z,77.80
2018-07-12T15:47:20.564Z,77.40
2018-07-12T15:49:49.205Z,77.20
2018-07-12T15:54:46.086Z,77.00
2018-07-12T15:57:14.684Z,75.50
2018-07-12T15:59:43.420Z,74.40
2018-07-12T16:02:12.171Z,75.20
2018-07-12T16:04:40.817Z,75.20
2018-07-12T16:07:09.476Z,74.50
2018-07-12T16:09:38.145Z,75.60
2018-07-12T16:12:07.329Z,76.20
2018-07-12T16:14:36.521Z,77.40
2018-07-12T16:17:05.251Z,78.50
2018-07-12T16:19:33.943Z,77.80
2018-07-12T16:22:02.651Z,78.20
2018-07-12T16:24:31.342Z,78.80
2018-07-12T16:27:00.357Z,79.30
2018-07-12T16:29:29.077Z,79.90
2018-07-12T16:31:57.788Z,81.00
2018-07-12T16:34:26.462Z,80.00
2018-07-12T16:36:55.082Z,79.40
2018-07-12T16:39:23.770Z,79.50
2018-07-12T16:41:52.519Z,79.40
2018-07-12T16:44:21.098Z,79.20
2018-07-12T16:46:49.757Z,78.90
2018-07-12T16:49:18.429Z,79.00
2018-07-12T16:51:47.116Z,79.60
2018-07-12T16:54:15.761Z,79.30
2018-07-12T16:56:44.413Z,79.10
2018-07-12T16:59:13.113Z,79.00
2018-07-12T17:01:41.727Z,79.90
2018-07-12T17:04:10.445Z,79.20
2018-07-12T17:06:39.155Z,79.80
2018-07-12T17:09:08.638Z,80.50
2018-07-12T17:14:05.753Z,80.00
2018-07-12T17:16:34.408Z,80.70
2018-07-12T17:19:03.056Z,81.20
2018-07-12T17:21:31.794Z,80.70
2018-07-12T17:24:00.411Z,81.50
2018-07-12T17:26:29.032Z,82.00
2018-07-12T17:28:57.719Z,82.20
2018-07-12T17:31:26.386Z,82.70
2018-07-12T17:33:55.217Z,83.00
2018-07-12T17:36:23.864Z,83.50
2018-07-12T17:38:52.563Z,83.60
2018-07-12T17:41:21.240Z,82.70
2018-07-12T17:43:50.035Z,82.60
2018-07-12T17:46:18.680Z,83.80
2018-07-12T17:48:47.285Z,84.50
2018-07-12T17:51:15.937Z,84.40
2018-07-12T17:53:44.639Z,85.30
2018-07-12T17:56:13.339Z,85.70
2018-07-12T17:58:42.018Z,86.50
2018-07-12T18:01:10.706Z,86.70
2018-07-12T18:03:39.330Z,87.60
2018-07-12T18:06:07.950Z,87.10
2018-07-12T18:08:36.573Z,86.40
2018-07-12T18:11:05.338Z,87.80
2018-07-12T18:13:34.011Z,88.30
2018-07-12T18:16:03.781Z,89.40
2018-07-12T18:18:32.430Z,89.60
2018-07-12T18:21:01.021Z,89.70
2018-07-12T18:23:29.749Z,89.90
2018-07-12T18:25:58.383Z,89.70
2018-07-12T18:28:27.051Z,90.10
2018-07-12T18:30:55.711Z,90.40
2018-07-12T18:35:52.611Z,90.50
2018-07-12T18:38:21.249Z,90.70
2018-07-12T18:40:49.940Z,90.90
2018-07-12T18:43:18.614Z,91.00
2018-07-12T18:45:47.348Z,91.20
2018-07-12T18:48:16.024Z,91.20
2018-07-12T18:50:44.690Z,91.40
2018-07-12T18:53:13.388Z,91.40
2018-07-12T18:55:42.010Z,91.70
2018-07-12T18:58:10.691Z,91.90
2018-07-12T19:00:39.335Z,92.40
2018-07-12T19:03:07.997Z,92.40
2018-07-12T19:05:36.667Z,92.60
2018-07-12T19:08:05.398Z,92.50
2018-07-12T19:10:34.033Z,92.80
2018-07-12T19:13:02.699Z,92.90
2018-07-12T19:15:31.380Z,92.90
2018-07-12T19:18:00.049Z,93.10
2018-07-12T19:20:28.642Z,93.40
2018-07-12T19:22:57.282Z,93.70
2018-07-12T19:25:25.967Z,94.20
2018-07-12T19:27:54.622Z,94.20
2018-07-12T19:30:23.260Z,94.70
2018-07-12T19:32:51.986Z,94.80
2018-07-12T19:35:21.963Z,95.10
2018-07-12T19:37:50.594Z,95.20
2018-07-12T19:40:19.281Z,95.30
2018-07-12T19:42:47.917Z,95.40
2018-07-12T19:45:16.627Z,95.50
2018-07-12T19:47:45.250Z,95.60
2018-07-12T19:50:14.705Z,95.70
2018-07-12T19:55:11.755Z,96.10
2018-07-12T19:57:40.462Z,96.20
2018-07-12T20:00:09.100Z,96.60
2018-07-12T20:02:37.818Z,97.00
2018-07-12T20:05:06.546Z,97.40
2018-07-12T20:07:35.183Z,97.60
2018-07-12T20:10:04.770Z,97.70
2018-07-12T20:12:33.446Z,98.10
2018-07-12T20:15:02.110Z,98.40
2018-07-12T20:17:30.738Z,98.60
2018-07-12T20:19:59.450Z,98.70
2018-07-12T20:22:28.131Z,98.90
2018-07-12T20:24:56.748Z,99.00
2018-07-12T20:27:25.415Z,99.20
2018-07-12T20:29:54.145Z,99.50
2018-07-12T20:32:22.821Z,99.50
2018-07-12T20:34:51.497Z,99.60
2018-07-12T20:37:20.145Z,99.80
2018-07-12T20:39:48.757Z,99.90
2018-07-12T20:42:17.399Z,99.90
2018-07-12T20:44:46.166Z,99.90
2018-07-12T20:47:14.740Z,99.90
2018-07-12T20:49:43.339Z,99.90
2018-07-12T20:52:11.972Z,99.90
2018-07-12T20:54:40.673Z,99.90
2018-07-12T20:57:09.280Z,99.90
2018-07-12T20:59:37.942Z,99.90
2018-07-12T21:02:06.555Z,99.90
2018-07-12T21:04:35.218Z,99.90
2018-07-12T21:07:03.811Z,99.90
2018-07-12T21:09:32.423Z,99.90
2018-07-12T21:12:01.074Z,99.90
2018-07-12T21:14:29.697Z,99.90
2018-07-12T21:16:58.295Z,99.90
2018-07-12T21:19:26.901Z,99.90
2018-07-12T21:21:55.677Z,99.90
2018-07-12T21:24:24.305Z,99.90
2018-07-12T21:26:52.939Z,99.90
2018-07-12T21:29:21.600Z,99.90
2018-07-12T21:34:18.522Z,99.90
2018-07-12T21:36:47.172Z,99.90
2018-07-12T21:39:15.920Z,99.90
2018-07-12T21:41:44.545Z,99.90
2018-07-12T21:44:13.164Z,99.90
2018-07-12T21:46:41.819Z,99.90
2018-07-12T21:49:10.452Z,99.90
2018-07-12T21:51:39.172Z,99.90
2018-07-12T21:54:07.820Z,99.90
2018-07-12T21:56:36.513Z,99.90
2018-07-12T21:59:05.235Z,99.90
2018-07-12T22:01:33.892Z,99.90
2018-07-12T22:04:02.553Z,99.90
2018-07-12T22:06:44.619Z,99.90
2018-07-12T22:09:13.245Z,99.90
2018-07-12T22:11:41.886Z,99.90
2018-07-12T22:14:10.537Z,99.90
2018-07-12T22:16:39.184Z,99.90
2018-07-12T22:19:07.845Z,99.90
2018-07-12T22:21:36.593Z,99.90
2018-07-12T22:24:05.308Z,99.90
2018-07-12T22:26:33.914Z,99.90
2018-07-12T22:29:02.596Z,99.90
2018-07-12T22:31:31.266Z,99.90
2018-07-12T22:33:59.888Z,99.90
2018-07-12T22:36:28.578Z,99.90
2018-07-12T22:38:57.224Z,99.90
2018-07-12T22:41:25.953Z,99.90
2018-07-12T22:43:54.619Z,99.90
2018-07-12T22:46:23.260Z,99.90
2018-07-12T22:48:51.908Z,99.90
2018-07-12T22:51:20.509Z,99.90
2018-07-12T22:53:49.208Z,99.90
2018-07-12T22:56:17.895Z,99.90
2018-07-12T22:58:46.499Z,99.90
2018-07-12T23:01:15.115Z,99.90
2018-07-12T23:03:43.755Z,99.90
2018-07-12T23:06:12.367Z,99.90
2018-07-12T23:08:40.978Z,99.90
2018-07-12T23:11:09.609Z,99.90
2018-07-12T23:13:38.253Z,99.90
2018-07-12T23:16:06.898Z,99.90
2018-07-12T23:18:35.532Z,99.90
2018-07-12T23:21:04.140Z,99.90
2018-07-12T23:23:32.748Z,99.90
2018-07-12T23:26:01.374Z,99.90
2018-07-12T23:28:30.045Z,99.90
2018-07-12T23:30:58.701Z,99.90
2018-07-12T23:33:27.353Z,99.90
2018-07-12T23:35:56.064Z,99.90
2018-07-12T23:38:24.734Z,99.90
2018-07-12T23:40:53.389Z,99.90
2018-07-12T23:43:21.986Z,99.90
2018-07-12T23:45:50.629Z,99.90
2018-07-12T23:48:19.281Z,99.90
2018-07-12T23:50:47.943Z,99.90
2018-07-12T23:53:16.698Z,99.90
2018-07-12T23:55:45.290Z,99.90
2018-07-12T23:58:13.914Z,99.90
